sensor_id;sensor_type;location;lat;lon;timestamp;P1;durP1;ratioP1;P2;durP2;ratioP2
665;SDS011;315;48.738;9.126;2023-07-20T00:01:25;4.07;;;3.67;;
665;SDS011;315;48.738;9.126;2023-07-20T00:03:51;3.63;;;3.33;;
665;SDS011;315;48.738;9.126;2023-07-20T00:06:20;3.53;;;2.70;;
665;SDS011;315;48.738;9.126;2023-07-20T00:08:51;3.97;;;2.93;;
665;SDS011;315;48.738;9.126;2023-07-20T00:11:16;3.03;;;2.83;;
665;SDS011;315;48.738;9.126;2023-07-20T00:13:42;3.63;;;3.33;;
665;SDS011;315;48.738;9.126;2023-07-20T00:16:08;3.70;;;3.40;;
665;SDS011;315;48.738;9.126;2023-07-20T00:18:33;8.70;;;3.53;;
665;SDS011;315;48.738;9.126;2023-07-20T00:20:59;4.10;;;3.33;;
665;SDS011;315;48.738;9.126;2023-07-20T00:23:25;4.10;;;3.13;;
665;SDS011;315;48.738;9.126;2023-07-20T00:25:51;4.07;;;3.40;;
665;SDS011;315;48.738;9.126;2023-07-20T00:28:17;3.17;;;2.87;;
665;SDS011;315;48.738;9.126;2023-07-20T00:30:42;3.70;;;3.40;;
665;SDS011;315;48.738;9.126;2023-07-20T00:33:11;3.43;;;3.13;;
665;SDS011;315;48.738;9.126;2023-07-20T00:35:37;3.67;;;2.80;;
665;SDS011;315;48.738;9.126;2023-07-20T00:38:05;3.87;;;3.07;;
665;SDS011;315;48.738;9.126;2023-07-20T00:40:37;3.90;;;3.57;;
665;SDS011;315;48.738;9.126;2023-07-20T00:43:04;4.07;;;3.37;;
665;SDS011;315;48.738;9.126;2023-07-20T00:45:30;3.70;;;3.40;;
665;SDS011;315;48.738;9.126;2023-07-20T00:47:56;3.37;;;3.07;;
665;SDS011;315;48.738;9.126;2023-07-20T00:50:22;4.53;;;4.00;;
665;SDS011;315;48.738;9.126;2023-07-20T00:52:49;5.00;;;2.87;;
665;SDS011;315;48.738;9.126;2023-07-20T00:55:15;3.40;;;3.10;;
665;SDS011;315;48.738;9.126;2023-07-20T00:57:40;4.40;;;4.00;;
665;SDS011;315;48.738;9.126;2023-07-20T01:00:06;3.40;;;3.10;;
665;SDS011;315;48.738;9.126;2023-07-20T01:02:32;4.27;;;3.20;;
665;SDS011;315;48.738;9.126;2023-07-20T01:04:58;3.50;;;3.20;;
665;SDS011;315;48.738;9.126;2023-07-20T01:07:27;4.90;;;3.70;;
665;SDS011;315;48.738;9.126;2023-07-20T01:10:06;3.33;;;3.03;;
665;SDS011;315;48.738;9.126;2023-07-20T01:12:47;3.80;;;3.40;;
665;SDS011;315;48.738;9.126;2023-07-20T01:15:15;2.80;;;2.60;;
665;SDS011;315;48.738;9.126;2023-07-20T01:17:41;4.20;;;3.80;;
665;SDS011;315;48.738;9.126;2023-07-20T01:20:07;4.07;;;3.33;;
665;SDS011;315;48.738;9.126;2023-07-20T01:31:20;3.97;;;3.40;;
665;SDS011;315;48.738;9.126;2023-07-20T01:33:50;4.07;;;2.77;;
665;SDS011;315;48.738;9.126;2023-07-20T01:36:19;2.80;;;2.60;;
665;SDS011;315;48.738;9.126;2023-07-20T01:38:46;4.33;;;3.13;;
665;SDS011;315;48.738;9.126;2023-07-20T01:41:12;3.77;;;3.47;;
665;SDS011;315;48.738;9.126;2023-07-20T01:43:39;3.17;;;2.87;;
665;SDS011;315;48.738;9.126;2023-07-20T01:46:05;4.93;;;3.90;;
665;SDS011;315;48.738;9.126;2023-07-20T01:48:30;3.80;;;2.67;;
665;SDS011;315;48.738;9.126;2023-07-20T01:50:56;3.10;;;2.80;;
665;SDS011;315;48.738;9.126;2023-07-20T01:53:22;2.87;;;2.67;;
665;SDS011;315;48.738;9.126;2023-07-20T01:55:47;5.23;;;2.90;;
665;SDS011;315;48.738;9.126;2023-07-20T01:58:13;4.03;;;3.23;;
665;SDS011;315;48.738;9.126;2023-07-20T02:00:39;3.50;;;3.20;;
665;SDS011;315;48.738;9.126;2023-07-20T02:03:04;4.20;;;3.50;;
665;SDS011;315;48.738;9.126;2023-07-20T02:05:30;4.23;;;3.67;;
665;SDS011;315;48.738;9.126;2023-07-20T02:07:55;2.70;;;2.50;;
665;SDS011;315;48.738;9.126;2023-07-20T02:10:21;3.73;;;3.43;;
665;SDS011;315;48.738;9.126;2023-07-20T02:12:47;3.07;;;2.77;;
665;SDS011;315;48.738;9.126;2023-07-20T02:15:13;3.00;;;2.63;;
665;SDS011;315;48.738;9.126;2023-07-20T02:17:41;4.93;;;3.00;;
665;SDS011;315;48.738;9.126;2023-07-20T02:20:07;6.20;;;3.33;;
665;SDS011;315;48.738;9.126;2023-07-20T02:22:35;3.63;;;3.33;;
665;SDS011;315;48.738;9.126;2023-07-20T02:25:01;3.63;;;2.73;;
665;SDS011;315;48.738;9.126;2023-07-20T02:27:26;3.80;;;3.50;;
665;SDS011;315;48.738;9.126;2023-07-20T02:29:52;3.03;;;2.83;;
665;SDS011;315;48.738;9.126;2023-07-20T02:32:17;3.70;;;3.27;;
665;SDS011;315;48.738;9.126;2023-07-20T02:34:43;2.80;;;2.60;;
665;SDS011;315;48.738;9.126;2023-07-20T02:37:08;3.27;;;3.03;;
665;SDS011;315;48.738;9.126;2023-07-20T02:39:34;5.23;;;3.40;;
665;SDS011;315;48.738;9.126;2023-07-20T02:41:59;4.03;;;3.30;;
665;SDS011;315;48.738;9.126;2023-07-20T02:44:25;3.83;;;3.53;;
665;SDS011;315;48.738;9.126;2023-07-20T02:46:50;3.40;;;3.17;;
665;SDS011;315;48.738;9.126;2023-07-20T02:49:16;4.63;;;3.50;;
665;SDS011;315;48.738;9.126;2023-07-20T02:51:41;3.53;;;3.03;;
665;SDS011;315;48.738;9.126;2023-07-20T02:54:07;3.13;;;2.83;;
665;SDS011;315;48.738;9.126;2023-07-20T02:56:33;3.80;;;3.27;;
665;SDS011;315;48.738;9.126;2023-07-20T02:59:00;3.90;;;3.50;;
665;SDS011;315;48.738;9.126;2023-07-20T03:01:26;4.40;;;3.30;;
665;SDS011;315;48.738;9.126;2023-07-20T03:03:54;4.10;;;3.70;;
665;SDS011;315;48.738;9.126;2023-07-20T03:06:20;3.83;;;3.50;;
665;SDS011;315;48.738;9.126;2023-07-20T03:08:45;6.00;;;3.80;;
665;SDS011;315;48.738;9.126;2023-07-20T03:11:16;4.33;;;2.40;;
665;SDS011;315;48.738;9.126;2023-07-20T03:13:42;4.20;;;3.30;;
665;SDS011;315;48.738;9.126;2023-07-20T03:16:08;3.37;;;3.07;;
665;SDS011;315;48.738;9.126;2023-07-20T03:18:36;3.80;;;3.30;;
665;SDS011;315;48.738;9.126;2023-07-20T03:21:02;3.97;;;3.00;;
665;SDS011;315;48.738;9.126;2023-07-20T03:23:28;3.83;;;3.40;;
665;SDS011;315;48.738;9.126;2023-07-20T03:25:53;3.40;;;2.77;;
665;SDS011;315;48.738;9.126;2023-07-20T03:28:20;5.40;;;3.20;;
665;SDS011;315;48.738;9.126;2023-07-20T03:30:45;4.50;;;3.73;;
665;SDS011;315;48.738;9.126;2023-07-20T03:33:11;3.30;;;3.00;;
665;SDS011;315;48.738;9.126;2023-07-20T03:35:37;4.03;;;3.03;;
665;SDS011;315;48.738;9.126;2023-07-20T03:38:02;5.30;;;3.20;;
665;SDS011;315;48.738;9.126;2023-07-20T03:40:29;6.47;;;3.30;;
665;SDS011;315;48.738;9.126;2023-07-20T03:42:54;4.47;;;4.07;;
665;SDS011;315;48.738;9.126;2023-07-20T03:45:20;4.83;;;3.23;;
665;SDS011;315;48.738;9.126;2023-07-20T03:47:49;5.20;;;3.27;;
665;SDS011;315;48.738;9.126;2023-07-20T03:50:14;6.43;;;3.10;;
665;SDS011;315;48.738;9.126;2023-07-20T03:52:40;2.90;;;2.70;;
665;SDS011;315;48.738;9.126;2023-07-20T03:55:05;5.00;;;3.20;;
665;SDS011;315;48.738;9.126;2023-07-20T03:57:31;4.03;;;3.57;;
665;SDS011;315;48.738;9.126;2023-07-20T03:59:58;3.33;;;3.03;;
665;SDS011;315;48.738;9.126;2023-07-20T04:02:23;3.80;;;2.83;;
665;SDS011;315;48.738;9.126;2023-07-20T04:04:50;3.80;;;3.40;;
665;SDS011;315;48.738;9.126;2023-07-20T04:07:15;3.03;;;2.83;;
665;SDS011;315;48.738;9.126;2023-07-20T04:09:41;3.87;;;3.40;;
665;SDS011;315;48.738;9.126;2023-07-20T04:12:06;8.00;;;3.13;;
665;SDS011;315;48.738;9.126;2023-07-20T04:14:32;4.03;;;3.60;;
665;SDS011;315;48.738;9.126;2023-07-20T04:16:58;3.73;;;3.43;;
665;SDS011;315;48.738;9.126;2023-07-20T04:19:25;6.80;;;3.30;;
665;SDS011;315;48.738;9.126;2023-07-20T04:21:51;3.83;;;3.53;;
665;SDS011;315;48.738;9.126;2023-07-20T04:24:16;4.63;;;4.27;;
665;SDS011;315;48.738;9.126;2023-07-20T04:26:42;4.30;;;3.63;;
665;SDS011;315;48.738;9.126;2023-07-20T04:29:07;3.83;;;3.50;;
665;SDS011;315;48.738;9.126;2023-07-20T04:31:33;3.50;;;3.20;;
665;SDS011;315;48.738;9.126;2023-07-20T04:33:59;3.77;;;3.47;;
665;SDS011;315;48.738;9.126;2023-07-20T04:36:24;4.33;;;3.87;;
665;SDS011;315;48.738;9.126;2023-07-20T04:38:50;4.03;;;3.73;;
665;SDS011;315;48.738;9.126;2023-07-20T04:41:15;4.30;;;3.33;;
665;SDS011;315;48.738;9.126;2023-07-20T04:43:41;6.67;;;3.87;;
665;SDS011;315;48.738;9.126;2023-07-20T04:46:10;4.40;;;4.00;;
665;SDS011;315;48.738;9.126;2023-07-20T04:48:36;8.93;;;3.97;;
665;SDS011;315;48.738;9.126;2023-07-20T04:51:02;3.77;;;3.17;;
665;SDS011;315;48.738;9.126;2023-07-20T04:53:28;4.23;;;3.13;;
665;SDS011;315;48.738;9.126;2023-07-20T04:55:53;3.73;;;3.07;;
665;SDS011;315;48.738;9.126;2023-07-20T04:58:19;3.57;;;3.27;;
665;SDS011;315;48.738;9.126;2023-07-20T05:00:47;3.03;;;2.73;;
665;SDS011;315;48.738;9.126;2023-07-20T05:03:14;3.23;;;2.93;;
665;SDS011;315;48.738;9.126;2023-07-20T05:05:39;3.40;;;3.10;;
665;SDS011;315;48.738;9.126;2023-07-20T05:08:05;3.87;;;3.40;;
665;SDS011;315;48.738;9.126;2023-07-20T05:10:30;3.97;;;3.23;;
665;SDS011;315;48.738;9.126;2023-07-20T05:12:57;3.20;;;2.90;;
665;SDS011;315;48.738;9.126;2023-07-20T05:15:23;3.40;;;3.10;;
665;SDS011;315;48.738;9.126;2023-07-20T05:17:48;7.83;;;4.17;;
665;SDS011;315;48.738;9.126;2023-07-20T05:20:14;5.00;;;3.33;;
665;SDS011;315;48.738;9.126;2023-07-20T05:22:40;3.60;;;2.90;;
665;SDS011;315;48.738;9.126;2023-07-20T05:25:06;3.83;;;3.30;;
665;SDS011;315;48.738;9.126;2023-07-20T05:27:33;6.70;;;3.40;;
665;SDS011;315;48.738;9.126;2023-07-20T05:29:59;3.70;;;3.30;;
665;SDS011;315;48.738;9.126;2023-07-20T05:32:25;4.20;;;3.80;;
665;SDS011;315;48.738;9.126;2023-07-20T05:34:52;4.13;;;3.07;;
665;SDS011;315;48.738;9.126;2023-07-20T05:37:17;3.60;;;2.97;;
665;SDS011;315;48.738;9.126;2023-07-20T05:39:43;3.30;;;3.10;;
665;SDS011;315;48.738;9.126;2023-07-20T05:42:08;3.43;;;3.20;;
665;SDS011;315;48.738;9.126;2023-07-20T05:44:34;3.80;;;3.30;;
665;SDS011;315;48.738;9.126;2023-07-20T05:47:00;4.63;;;3.50;;
665;SDS011;315;48.738;9.126;2023-07-20T05:49:25;6.30;;;4.13;;
665;SDS011;315;48.738;9.126;2023-07-20T05:51:51;5.10;;;3.30;;
665;SDS011;315;48.738;9.126;2023-07-20T05:54:16;4.23;;;3.47;;
665;SDS011;315;48.738;9.126;2023-07-20T05:56:42;3.20;;;2.90;;
665;SDS011;315;48.738;9.126;2023-07-20T05:59:07;6.13;;;3.90;;
665;SDS011;315;48.738;9.126;2023-07-20T06:01:33;3.67;;;3.37;;
665;SDS011;315;48.738;9.126;2023-07-20T06:03:58;4.90;;;3.70;;
665;SDS011;315;48.738;9.126;2023-07-20T06:06:24;2.93;;;2.60;;
665;SDS011;315;48.738;9.126;2023-07-20T06:08:50;5.77;;;3.30;;
665;SDS011;315;48.738;9.126;2023-07-20T06:11:16;3.80;;;3.43;;
665;SDS011;315;48.738;9.126;2023-07-20T06:13:42;3.40;;;3.10;;
665;SDS011;315;48.738;9.126;2023-07-20T06:16:08;7.17;;;4.10;;
665;SDS011;315;48.738;9.126;2023-07-20T06:18:34;2.77;;;2.57;;
665;SDS011;315;48.738;9.126;2023-07-20T06:20:59;4.03;;;3.23;;
665;SDS011;315;48.738;9.126;2023-07-20T06:23:25;3.63;;;3.10;;
665;SDS011;315;48.738;9.126;2023-07-20T06:25:50;2.60;;;2.40;;
665;SDS011;315;48.738;9.126;2023-07-20T06:28:16;3.50;;;2.90;;
665;SDS011;315;48.738;9.126;2023-07-20T06:30:42;3.13;;;2.83;;
665;SDS011;315;48.738;9.126;2023-07-20T06:33:08;3.97;;;3.07;;
665;SDS011;315;48.738;9.126;2023-07-20T06:35:34;4.43;;;3.37;;
665;SDS011;315;48.738;9.126;2023-07-20T06:38:00;3.93;;;3.53;;
665;SDS011;315;48.738;9.126;2023-07-20T06:40:29;5.10;;;3.20;;
665;SDS011;315;48.738;9.126;2023-07-20T06:42:55;4.83;;;2.90;;
665;SDS011;315;48.738;9.126;2023-07-20T06:45:21;3.13;;;2.83;;
665;SDS011;315;48.738;9.126;2023-07-20T06:47:46;4.30;;;2.47;;
665;SDS011;315;48.738;9.126;2023-07-20T06:50:12;4.40;;;2.90;;
665;SDS011;315;48.738;9.126;2023-07-20T06:52:37;9.57;;;3.43;;
665;SDS011;315;48.738;9.126;2023-07-20T06:55:04;4.40;;;3.30;;
665;SDS011;315;48.738;9.126;2023-07-20T06:57:31;2.87;;;2.67;;
665;SDS011;315;48.738;9.126;2023-07-20T06:59:57;3.63;;;3.07;;
665;SDS011;315;48.738;9.126;2023-07-20T07:02:22;3.37;;;3.07;;
665;SDS011;315;48.738;9.126;2023-07-20T07:04:48;6.73;;;2.93;;
665;SDS011;315;48.738;9.126;2023-07-20T07:07:14;6.63;;;2.90;;
665;SDS011;315;48.738;9.126;2023-07-20T07:09:40;3.40;;;3.10;;
665;SDS011;315;48.738;9.126;2023-07-20T07:12:06;2.87;;;2.60;;
665;SDS011;315;48.738;9.126;2023-07-20T07:14:32;3.20;;;2.97;;
665;SDS011;315;48.738;9.126;2023-07-20T07:16:57;6.17;;;3.30;;
665;SDS011;315;48.738;9.126;2023-07-20T07:19:23;5.53;;;3.27;;
665;SDS011;315;48.738;9.126;2023-07-20T07:21:48;5.03;;;3.20;;
665;SDS011;315;48.738;9.126;2023-07-20T07:24:14;5.20;;;3.07;;
665;SDS011;315;48.738;9.126;2023-07-20T07:26:39;5.27;;;3.30;;
665;SDS011;315;48.738;9.126;2023-07-20T07:29:05;3.47;;;3.17;;
665;SDS011;315;48.738;9.126;2023-07-20T07:31:33;3.10;;;2.90;;
665;SDS011;315;48.738;9.126;2023-07-20T07:34:00;4.73;;;3.00;;
665;SDS011;315;48.738;9.126;2023-07-20T07:36:25;3.70;;;3.17;;
665;SDS011;315;48.738;9.126;2023-07-20T07:38:51;4.93;;;3.03;;
665;SDS011;315;48.738;9.126;2023-07-20T07:41:16;7.23;;;3.20;;
665;SDS011;315;48.738;9.126;2023-07-20T07:43:42;10.10;;;3.90;;
665;SDS011;315;48.738;9.126;2023-07-20T07:46:08;3.93;;;3.37;;
665;SDS011;315;48.738;9.126;2023-07-20T07:48:33;5.03;;;3.50;;
665;SDS011;315;48.738;9.126;2023-07-20T07:50:59;3.97;;;2.90;;
665;SDS011;315;48.738;9.126;2023-07-20T07:53:24;3.03;;;2.83;;
665;SDS011;315;48.738;9.126;2023-07-20T07:55:51;6.00;;;3.77;;
665;SDS011;315;48.738;9.126;2023-07-20T07:58:17;3.10;;;2.90;;
665;SDS011;315;48.738;9.126;2023-07-20T08:00:42;5.00;;;3.30;;
665;SDS011;315;48.738;9.126;2023-07-20T08:03:09;4.50;;;3.23;;
665;SDS011;315;48.738;9.126;2023-07-20T08:05:34;5.17;;;3.97;;
665;SDS011;315;48.738;9.126;2023-07-20T08:08:01;3.50;;;3.20;;
665;SDS011;315;48.738;9.126;2023-07-20T08:10:28;2.93;;;2.70;;
665;SDS011;315;48.738;9.126;2023-07-20T08:12:54;5.63;;;3.57;;
665;SDS011;315;48.738;9.126;2023-07-20T08:15:19;4.57;;;3.17;;
665;SDS011;315;48.738;9.126;2023-07-20T08:17:45;3.30;;;3.00;;
665;SDS011;315;48.738;9.126;2023-07-20T08:20:12;4.03;;;3.27;;
665;SDS011;315;48.738;9.126;2023-07-20T08:22:38;3.27;;;2.97;;
665;SDS011;315;48.738;9.126;2023-07-20T08:25:04;3.93;;;3.13;;
665;SDS011;315;48.738;9.126;2023-07-20T08:27:31;3.33;;;2.53;;
665;SDS011;315;48.738;9.126;2023-07-20T08:29:56;2.93;;;2.60;;
665;SDS011;315;48.738;9.126;2023-07-20T08:32:22;3.80;;;3.13;;
665;SDS011;315;48.738;9.126;2023-07-20T08:34:47;4.33;;;3.10;;
665;SDS011;315;48.738;9.126;2023-07-20T08:37:13;5.27;;;3.03;;
665;SDS011;315;48.738;9.126;2023-07-20T08:39:38;3.30;;;3.00;;
665;SDS011;315;48.738;9.126;2023-07-20T08:42:04;7.50;;;3.10;;
665;SDS011;315;48.738;9.126;2023-07-20T08:44:34;3.27;;;2.90;;
665;SDS011;315;48.738;9.126;2023-07-20T08:47:01;3.30;;;3.10;;
665;SDS011;315;48.738;9.126;2023-07-20T08:49:28;3.37;;;3.07;;
665;SDS011;315;48.738;9.126;2023-07-20T08:51:56;4.00;;;3.50;;
665;SDS011;315;48.738;9.126;2023-07-20T08:54:22;5.60;;;4.23;;
665;SDS011;315;48.738;9.126;2023-07-20T08:56:49;3.43;;;2.63;;
665;SDS011;315;48.738;9.126;2023-07-20T08:59:16;3.40;;;2.87;;
665;SDS011;315;48.738;9.126;2023-07-20T09:01:43;7.10;;;3.87;;
665;SDS011;315;48.738;9.126;2023-07-20T09:04:10;4.07;;;3.27;;
665;SDS011;315;48.738;9.126;2023-07-20T09:06:36;5.83;;;3.30;;
665;SDS011;315;48.738;9.126;2023-07-20T09:09:02;3.50;;;2.87;;
665;SDS011;315;48.738;9.126;2023-07-20T09:11:28;3.17;;;2.87;;
665;SDS011;315;48.738;9.126;2023-07-20T09:14:03;3.33;;;2.90;;
665;SDS011;315;48.738;9.126;2023-07-20T09:16:30;4.70;;;2.97;;
665;SDS011;315;48.738;9.126;2023-07-20T09:18:57;3.10;;;2.90;;
665;SDS011;315;48.738;9.126;2023-07-20T09:21:23;5.30;;;2.87;;
665;SDS011;315;48.738;9.126;2023-07-20T09:23:53;2.93;;;2.67;;
665;SDS011;315;48.738;9.126;2023-07-20T09:26:22;4.43;;;2.80;;
665;SDS011;315;48.738;9.126;2023-07-20T09:28:53;9.20;;;4.00;;
665;SDS011;315;48.738;9.126;2023-07-20T09:31:21;2.60;;;2.40;;
665;SDS011;315;48.738;9.126;2023-07-20T09:33:47;8.83;;;3.13;;
665;SDS011;315;48.738;9.126;2023-07-20T09:36:14;2.90;;;2.67;;
665;SDS011;315;48.738;9.126;2023-07-20T09:38:41;5.20;;;2.90;;
665;SDS011;315;48.738;9.126;2023-07-20T09:41:07;4.33;;;2.77;;
665;SDS011;315;48.738;9.126;2023-07-20T09:43:36;3.23;;;2.93;;
665;SDS011;315;48.738;9.126;2023-07-20T09:46:02;4.73;;;2.47;;
665;SDS011;315;48.738;9.126;2023-07-20T09:48:27;2.90;;;2.40;;
665;SDS011;315;48.738;9.126;2023-07-20T09:50:55;3.13;;;2.83;;
665;SDS011;315;48.738;9.126;2023-07-20T09:53:21;4.63;;;2.70;;
665;SDS011;315;48.738;9.126;2023-07-20T09:55:50;2.53;;;2.33;;
665;SDS011;315;48.738;9.126;2023-07-20T09:58:17;4.13;;;2.10;;
665;SDS011;315;48.738;9.126;2023-07-20T10:00:43;2.50;;;2.30;;
665;SDS011;315;48.738;9.126;2023-07-20T10:03:16;2.63;;;2.40;;
665;SDS011;315;48.738;9.126;2023-07-20T10:05:46;6.40;;;3.17;;
665;SDS011;315;48.738;9.126;2023-07-20T10:08:16;3.13;;;2.80;;
665;SDS011;315;48.738;9.126;2023-07-20T10:10:43;2.60;;;2.40;;
665;SDS011;315;48.738;9.126;2023-07-20T10:13:17;4.20;;;2.27;;
665;SDS011;315;48.738;9.126;2023-07-20T10:15:50;2.10;;;2.00;;
665;SDS011;315;48.738;9.126;2023-07-20T10:18:30;2.80;;;2.20;;
665;SDS011;315;48.738;9.126;2023-07-20T10:21:20;3.10;;;2.55;;
665;SDS011;315;48.738;9.126;2023-07-20T10:23:48;4.10;;;3.20;;
665;SDS011;315;48.738;9.126;2023-07-20T10:26:13;3.10;;;2.80;;
665;SDS011;315;48.738;9.126;2023-07-20T10:28:39;2.70;;;2.50;;
665;SDS011;315;48.738;9.126;2023-07-20T10:31:07;2.83;;;2.10;;
665;SDS011;315;48.738;9.126;2023-07-20T10:33:34;3.23;;;2.80;;
665;SDS011;315;48.738;9.126;2023-07-20T10:36:01;2.60;;;2.40;;
665;SDS011;315;48.738;9.126;2023-07-20T10:38:39;2.60;;;2.40;;
665;SDS011;315;48.738;9.126;2023-07-20T10:41:15;2.53;;;2.13;;
665;SDS011;315;48.738;9.126;2023-07-20T10:43:43;2.70;;;2.40;;
665;SDS011;315;48.738;9.126;2023-07-20T10:46:10;2.87;;;2.50;;
665;SDS011;315;48.738;9.126;2023-07-20T10:48:36;3.23;;;2.40;;
665;SDS011;315;48.738;9.126;2023-07-20T10:51:29;4.80;;;2.67;;
665;SDS011;315;48.738;9.126;2023-07-20T10:53:56;2.13;;;1.97;;
665;SDS011;315;48.738;9.126;2023-07-20T10:56:25;2.93;;;2.40;;
665;SDS011;315;48.738;9.126;2023-07-20T10:58:57;1.90;;;1.80;;
665;SDS011;315;48.738;9.126;2023-07-20T11:01:27;3.50;;;2.70;;
665;SDS011;315;48.738;9.126;2023-07-20T11:04:00;2.83;;;2.53;;
665;SDS011;315;48.738;9.126;2023-07-20T11:08:55;2.60;;;2.40;;
665;SDS011;315;48.738;9.126;2023-07-20T11:11:35;3.20;;;2.43;;
665;SDS011;315;48.738;9.126;2023-07-20T11:14:25;2.73;;;1.73;;
665;SDS011;315;48.738;9.126;2023-07-20T11:16:51;2.10;;;2.00;;
665;SDS011;315;48.738;9.126;2023-07-20T11:19:18;3.27;;;2.13;;
665;SDS011;315;48.738;9.126;2023-07-20T11:21:46;4.80;;;2.60;;
665;SDS011;315;48.738;9.126;2023-07-20T11:24:14;2.07;;;1.97;;
665;SDS011;315;48.738;9.126;2023-07-20T11:26:49;2.67;;;2.47;;
665;SDS011;315;48.738;9.126;2023-07-20T11:29:16;2.37;;;2.10;;
665;SDS011;315;48.738;9.126;2023-07-20T11:31:44;2.73;;;2.00;;
665;SDS011;315;48.738;9.126;2023-07-20T11:34:11;2.30;;;2.10;;
665;SDS011;315;48.738;9.126;2023-07-20T11:36:39;1.80;;;1.70;;
665;SDS011;315;48.738;9.126;2023-07-20T11:39:06;2.13;;;2.03;;
665;SDS011;315;48.738;9.126;2023-07-20T11:41:34;2.27;;;2.00;;
665;SDS011;315;48.738;9.126;2023-07-20T11:44:00;2.80;;;2.10;;
665;SDS011;315;48.738;9.126;2023-07-20T11:46:27;2.20;;;2.00;;
665;SDS011;315;48.738;9.126;2023-07-20T11:48:57;2.27;;;2.17;;
665;SDS011;315;48.738;9.126;2023-07-20T11:51:29;2.10;;;1.90;;
665;SDS011;315;48.738;9.126;2023-07-20T11:53:57;2.20;;;1.93;;
665;SDS011;315;48.738;9.126;2023-07-20T11:56:23;1.97;;;1.87;;
665;SDS011;315;48.738;9.126;2023-07-20T11:58:50;1.93;;;1.83;;
665;SDS011;315;48.738;9.126;2023-07-20T12:01:19;2.10;;;2.00;;
665;SDS011;315;48.738;9.126;2023-07-20T12:03:45;2.27;;;1.80;;
665;SDS011;315;48.738;9.126;2023-07-20T12:06:12;2.60;;;2.50;;
665;SDS011;315;48.738;9.126;2023-07-20T12:08:41;2.17;;;2.07;;
665;SDS011;315;48.738;9.126;2023-07-20T12:11:08;4.90;;;2.20;;
665;SDS011;315;48.738;9.126;2023-07-20T12:13:43;2.57;;;2.40;;
665;SDS011;315;48.738;9.126;2023-07-20T12:16:13;2.47;;;2.13;;
665;SDS011;315;48.738;9.126;2023-07-20T12:18:39;2.00;;;1.90;;
665;SDS011;315;48.738;9.126;2023-07-20T12:21:06;2.80;;;2.00;;
665;SDS011;315;48.738;9.126;2023-07-20T12:23:39;2.10;;;1.83;;
665;SDS011;315;48.738;9.126;2023-07-20T12:26:08;3.73;;;1.97;;
665;SDS011;315;48.738;9.126;2023-07-20T12:28:39;2.27;;;2.03;;
665;SDS011;315;48.738;9.126;2023-07-20T12:31:08;2.33;;;1.80;;
665;SDS011;315;48.738;9.126;2023-07-20T12:33:35;1.77;;;1.67;;
665;SDS011;315;48.738;9.126;2023-07-20T12:36:01;2.10;;;2.00;;
665;SDS011;315;48.738;9.126;2023-07-20T12:38:27;3.80;;;2.83;;
665;SDS011;315;48.738;9.126;2023-07-20T12:40:53;3.90;;;2.87;;
665;SDS011;315;48.738;9.126;2023-07-20T12:43:22;2.50;;;2.30;;
665;SDS011;315;48.738;9.126;2023-07-20T12:45:47;2.40;;;2.30;;
665;SDS011;315;48.738;9.126;2023-07-20T12:48:13;2.70;;;2.50;;
665;SDS011;315;48.738;9.126;2023-07-20T12:50:38;2.00;;;1.90;;
665;SDS011;315;48.738;9.126;2023-07-20T12:53:04;2.20;;;1.80;;
665;SDS011;315;48.738;9.126;2023-07-20T12:55:30;2.77;;;2.57;;
665;SDS011;315;48.738;9.126;2023-07-20T12:57:55;2.93;;;2.23;;
665;SDS011;315;48.738;9.126;2023-07-20T13:00:21;1.83;;;1.73;;
665;SDS011;315;48.738;9.126;2023-07-20T13:02:48;2.10;;;2.00;;
665;SDS011;315;48.738;9.126;2023-07-20T13:05:14;2.00;;;1.83;;
665;SDS011;315;48.738;9.126;2023-07-20T13:07:40;3.30;;;2.20;;
665;SDS011;315;48.738;9.126;2023-07-20T13:10:06;2.60;;;2.50;;
665;SDS011;315;48.738;9.126;2023-07-20T13:12:33;2.27;;;2.17;;
665;SDS011;315;48.738;9.126;2023-07-20T13:15:00;3.17;;;1.70;;
665;SDS011;315;48.738;9.126;2023-07-20T13:17:27;2.70;;;1.93;;
665;SDS011;315;48.738;9.126;2023-07-20T13:19:54;2.93;;;2.10;;
665;SDS011;315;48.738;9.126;2023-07-20T13:22:20;4.17;;;2.27;;
665;SDS011;315;48.738;9.126;2023-07-20T13:24:46;2.10;;;2.00;;
665;SDS011;315;48.738;9.126;2023-07-20T13:27:21;2.10;;;1.90;;
665;SDS011;315;48.738;9.126;2023-07-20T13:30:03;2.43;;;2.23;;
665;SDS011;315;48.738;9.126;2023-07-20T13:32:32;2.73;;;2.53;;
665;SDS011;315;48.738;9.126;2023-07-20T13:34:58;2.50;;;1.80;;
665;SDS011;315;48.738;9.126;2023-07-20T13:37:24;3.73;;;2.00;;
665;SDS011;315;48.738;9.126;2023-07-20T13:39:50;2.23;;;2.10;;
665;SDS011;315;48.738;9.126;2023-07-20T13:42:15;2.90;;;2.57;;
665;SDS011;315;48.738;9.126;2023-07-20T13:44:42;2.70;;;2.43;;
665;SDS011;315;48.738;9.126;2023-07-20T13:47:07;1.93;;;1.80;;
665;SDS011;315;48.738;9.126;2023-07-20T13:49:33;2.40;;;2.20;;
665;SDS011;315;48.738;9.126;2023-07-20T13:51:58;2.33;;;2.23;;
665;SDS011;315;48.738;9.126;2023-07-20T13:54:24;2.03;;;1.93;;
665;SDS011;315;48.738;9.126;2023-07-20T13:56:50;2.10;;;1.97;;
665;SDS011;315;48.738;9.126;2023-07-20T13:59:16;2.40;;;2.20;;
665;SDS011;315;48.738;9.126;2023-07-20T14:01:42;2.33;;;2.10;;
665;SDS011;315;48.738;9.126;2023-07-20T14:04:08;2.63;;;1.93;;
665;SDS011;315;48.738;9.126;2023-07-20T14:06:34;3.27;;;1.87;;
665;SDS011;315;48.738;9.126;2023-07-20T14:09:00;2.23;;;2.10;;
665;SDS011;315;48.738;9.126;2023-07-20T14:11:27;2.27;;;2.17;;
665;SDS011;315;48.738;9.126;2023-07-20T14:13:52;2.40;;;2.20;;
665;SDS011;315;48.738;9.126;2023-07-20T14:16:18;2.00;;;1.90;;
665;SDS011;315;48.738;9.126;2023-07-20T14:18:47;1.93;;;1.83;;
665;SDS011;315;48.738;9.126;2023-07-20T14:21:14;5.27;;;2.00;;
665;SDS011;315;48.738;9.126;2023-07-20T14:23:40;2.50;;;2.30;;
665;SDS011;315;48.738;9.126;2023-07-20T14:26:05;2.77;;;2.30;;
665;SDS011;315;48.738;9.126;2023-07-20T14:28:32;2.30;;;2.20;;
665;SDS011;315;48.738;9.126;2023-07-20T14:30:58;1.90;;;1.73;;
665;SDS011;315;48.738;9.126;2023-07-20T14:33:23;2.83;;;2.47;;
665;SDS011;315;48.738;9.126;2023-07-20T14:35:49;2.40;;;2.20;;
665;SDS011;315;48.738;9.126;2023-07-20T14:38:15;5.20;;;2.10;;
665;SDS011;315;48.738;9.126;2023-07-20T14:40:40;2.20;;;2.00;;
665;SDS011;315;48.738;9.126;2023-07-20T14:43:06;1.70;;;1.60;;
665;SDS011;315;48.738;9.126;2023-07-20T14:45:32;4.20;;;2.30;;
665;SDS011;315;48.738;9.126;2023-07-20T14:47:57;2.17;;;1.97;;
665;SDS011;315;48.738;9.126;2023-07-20T14:50:23;2.10;;;1.97;;
665;SDS011;315;48.738;9.126;2023-07-20T14:52:48;1.93;;;1.83;;
665;SDS011;315;48.738;9.126;2023-07-20T14:55:14;3.87;;;2.20;;
665;SDS011;315;48.738;9.126;2023-07-20T14:57:40;2.10;;;2.00;;
665;SDS011;315;48.738;9.126;2023-07-20T15:00:06;4.13;;;2.17;;
665;SDS011;315;48.738;9.126;2023-07-20T15:02:33;2.60;;;2.40;;
665;SDS011;315;48.738;9.126;2023-07-20T15:04:59;2.23;;;2.10;;
665;SDS011;315;48.738;9.126;2023-07-20T15:07:25;7.30;;;2.40;;
665;SDS011;315;48.738;9.126;2023-07-20T15:09:50;2.50;;;2.30;;
665;SDS011;315;48.738;9.126;2023-07-20T15:12:16;1.97;;;1.77;;
665;SDS011;315;48.738;9.126;2023-07-20T15:14:42;3.40;;;1.90;;
665;SDS011;315;48.738;9.126;2023-07-20T15:17:11;2.30;;;2.10;;
665;SDS011;315;48.738;9.126;2023-07-20T15:19:37;3.37;;;2.70;;
665;SDS011;315;48.738;9.126;2023-07-20T15:22:03;2.00;;;1.90;;
665;SDS011;315;48.738;9.126;2023-07-20T15:24:29;2.40;;;2.20;;
665;SDS011;315;48.738;9.126;2023-07-20T15:26:55;3.10;;;2.30;;
665;SDS011;315;48.738;9.126;2023-07-20T15:29:22;2.57;;;2.37;;
665;SDS011;315;48.738;9.126;2023-07-20T15:31:48;1.90;;;1.80;;
665;SDS011;315;48.738;9.126;2023-07-20T15:34:13;2.43;;;2.23;;
665;SDS011;315;48.738;9.126;2023-07-20T15:36:40;1.97;;;1.77;;
665;SDS011;315;48.738;9.126;2023-07-20T15:39:06;3.80;;;2.03;;
665;SDS011;315;48.738;9.126;2023-07-20T15:41:32;2.83;;;1.90;;
665;SDS011;315;48.738;9.126;2023-07-20T15:43:58;2.03;;;1.77;;
665;SDS011;315;48.738;9.126;2023-07-20T15:49:04;2.90;;;1.80;;
665;SDS011;315;48.738;9.126;2023-07-20T15:51:31;7.03;;;2.40;;
665;SDS011;315;48.738;9.126;2023-07-20T15:53:57;2.60;;;2.40;;
665;SDS011;315;48.738;9.126;2023-07-20T15:56:23;2.60;;;1.70;;